sensor_id;sensor_type;location;lat;lon;timestamp;temperature;humidity
56542;DHT22;42438;53.174;6.730;2023-04-01T00:02:25;9.90;99.90
56542;DHT22;42438;53.174;6.730;2023-04-01T00:04:56;10.10;99.90
56542;DHT22;42438;53.174;6.730;2023-04-01T00:07:27;9.80;99.90
56542;DHT22;42438;53.174;6.730;2023-04-01T00:09:57;9.90;99.90
56542;DHT22;42438;53.174;6.730;2023-04-01T00:12:28;10.10;99.90
56542;DHT22;42438;53.174;6.730;2023-04-01T00:14:58;10.10;99.90
56542;DHT22;42438;53.174;6.730;2023-04-01T00:17:29;10.10;99.90
56542;DHT22;42438;53.174;6.730;2023-04-01T00:20:00;9.80;99.90
56542;DHT22;42438;53.174;6.730;2023-04-01T00:22:30;10.10;99.90
56542;DHT22;42438;53.174;6.730;2023-04-01T00:25:01;9.80;99.90
56542;DHT22;42438;53.174;6.730;2023-04-01T00:27:31;9.90;99.90
56542;DHT22;42438;53.174;6.730;2023-04-01T00:30:02;10.00;99.90
56542;DHT22;42438;53.174;6.730;2023-04-01T00:32:33;9.80;99.90
56542;DHT22;42438;53.174;6.730;2023-04-01T00:35:04;9.90;99.90
56542;DHT22;42438;53.174;6.730;2023-04-01T00:37:35;9.80;99.90
56542;DHT22;42438;53.174;6.730;2023-04-01T00:40:07;9.80;99.90
56542;DHT22;42438;53.174;6.730;2023-04-01T00:42:38;10.10;99.90
56542;DHT22;42438;53.174;6.730;2023-04-01T00:48:19;10.10;99.90
56542;DHT22;42438;53.174;6.730;2023-04-01T00:50:55;9.80;99.90
56542;DHT22;42438;53.174;6.730;2023-04-01T00:53:28;9.90;99.90
56542;DHT22;42438;53.174;6.730;2023-04-01T00:56:01;9.90;99.90
56542;DHT22;42438;53.174;6.730;2023-04-01T00:58:35;9.80;99.90
56542;DHT22;42438;53.174;6.730;2023-04-01T01:01:06;10.00;99.90
56542;DHT22;42438;53.174;6.730;2023-04-01T01:03:38;9.90;99.90
56542;DHT22;42438;53.174;6.730;2023-04-01T01:09:02;10.10;99.90
56542;DHT22;42438;53.174;6.730;2023-04-01T01:11:46;9.80;99.90
56542;DHT22;42438;53.174;6.730;2023-04-01T01:16:59;9.80;99.90
56542;DHT22;42438;53.174;6.730;2023-04-01T01:19:48;9.80;99.90
56542;DHT22;42438;53.174;6.730;2023-04-01T01:27:42;10.00;99.90
56542;DHT22;42438;53.174;6.730;2023-04-01T01:30:19;10.00;99.90
56542;DHT22;42438;53.174;6.730;2023-04-01T01:37:59;9.70;99.90
56542;DHT22;42438;53.174;6.730;2023-04-01T01:40:31;9.70;99.90
56542;DHT22;42438;53.174;6.730;2023-04-01T01:43:05;9.70;99.90
56542;DHT22;42438;53.174;6.730;2023-04-01T01:45:38;9.70;99.90
56542;DHT22;42438;53.174;6.730;2023-04-01T01:48:11;9.80;99.90
56542;DHT22;42438;53.174;6.730;2023-04-01T01:50:42;9.90;99.90
56542;DHT22;42438;53.174;6.730;2023-04-01T01:53:13;9.80;99.90
56542;DHT22;42438;53.174;6.730;2023-04-01T01:55:45;9.90;99.90
56542;DHT22;42438;53.174;6.730;2023-04-01T01:58:21;9.90;99.90
56542;DHT22;42438;53.174;6.730;2023-04-01T02:00:54;9.80;99.90
56542;DHT22;42438;53.174;6.730;2023-04-01T02:03:25;9.70;99.90
56542;DHT22;42438;53.174;6.730;2023-04-01T02:05:59;9.90;99.90
56542;DHT22;42438;53.174;6.730;2023-04-01T02:08:32;9.60;99.90
56542;DHT22;42438;53.174;6.730;2023-04-01T02:11:11;9.60;99.90
56542;DHT22;42438;53.174;6.730;2023-04-01T02:13:48;9.60;99.90
56542;DHT22;42438;53.174;6.730;2023-04-01T02:16:25;9.90;99.90
56542;DHT22;42438;53.174;6.730;2023-04-01T02:18:58;9.70;99.90
56542;DHT22;42438;53.174;6.730;2023-04-01T02:21:30;9.80;99.90
56542;DHT22;42438;53.174;6.730;2023-04-01T02:24:02;9.60;99.90
56542;DHT22;42438;53.174;6.730;2023-04-01T02:26:34;9.80;99.90
56542;DHT22;42438;53.174;6.730;2023-04-01T02:29:05;9.90;99.90
56542;DHT22;42438;53.174;6.730;2023-04-01T02:31:36;9.90;99.90
56542;DHT22;42438;53.174;6.730;2023-04-01T02:34:07;9.80;99.90
56542;DHT22;42438;53.174;6.730;2023-04-01T02:36:38;9.80;99.90
56542;DHT22;42438;53.174;6.730;2023-04-01T02:39:08;9.70;99.90
56542;DHT22;42438;53.174;6.730;2023-04-01T02:41:40;9.80;99.90
56542;DHT22;42438;53.174;6.730;2023-04-01T02:44:11;9.80;99.90
56542;DHT22;42438;53.174;6.730;2023-04-01T02:46:42;9.60;99.90
56542;DHT22;42438;53.174;6.730;2023-04-01T02:49:13;9.60;99.90
56542;DHT22;42438;53.174;6.730;2023-04-01T02:51:44;9.50;99.90
56542;DHT22;42438;53.174;6.730;2023-04-01T02:54:14;9.80;99.90
56542;DHT22;42438;53.174;6.730;2023-04-01T02:56:45;9.80;99.90
56542;DHT22;42438;53.174;6.730;2023-04-01T02:59:16;9.80;99.90
56542;DHT22;42438;53.174;6.730;2023-04-01T03:01:46;9.50;99.90
56542;DHT22;42438;53.174;6.730;2023-04-01T03:04:17;9.50;99.90
56542;DHT22;42438;53.174;6.730;2023-04-01T03:06:47;9.50;99.90
56542;DHT22;42438;53.174;6.730;2023-04-01T03:09:18;9.50;99.90
56542;DHT22;42438;53.174;6.730;2023-04-01T03:11:48;9.70;99.90
56542;DHT22;42438;53.174;6.730;2023-04-01T03:14:19;9.50;99.90
56542;DHT22;42438;53.174;6.730;2023-04-01T03:16:50;9.60;99.90
56542;DHT22;42438;53.174;6.730;2023-04-01T03:19:20;9.70;99.90
56542;DHT22;42438;53.174;6.730;2023-04-01T03:21:51;9.70;99.90
56542;DHT22;42438;53.174;6.730;2023-04-01T03:24:21;9.60;99.90
56542;DHT22;42438;53.174;6.730;2023-04-01T03:26:52;9.40;99.90
56542;DHT22;42438;53.174;6.730;2023-04-01T03:29:23;9.60;99.90
56542;DHT22;42438;53.174;6.730;2023-04-01T03:31:53;9.70;99.90
56542;DHT22;42438;53.174;6.730;2023-04-01T03:34:25;9.70;99.90
56542;DHT22;42438;53.174;6.730;2023-04-01T03:36:55;9.40;99.90
56542;DHT22;42438;53.174;6.730;2023-04-01T03:39:26;9.70;99.90
56542;DHT22;42438;53.174;6.730;2023-04-01T03:41:56;9.70;99.90
56542;DHT22;42438;53.174;6.730;2023-04-01T03:44:30;9.60;99.90
56542;DHT22;42438;53.174;6.730;2023-04-01T03:47:01;9.60;99.90
56542;DHT22;42438;53.174;6.730;2023-04-01T03:49:32;9.70;99.90
56542;DHT22;42438;53.174;6.730;2023-04-01T03:52:03;9.60;99.90
56542;DHT22;42438;53.174;6.730;2023-04-01T03:54:33;9.60;99.90
56542;DHT22;42438;53.174;6.730;2023-04-01T03:57:04;9.40;99.90
56542;DHT22;42438;53.174;6.730;2023-04-01T03:59:34;9.40;99.90
56542;DHT22;42438;53.174;6.730;2023-04-01T04:02:05;9.50;99.90
56542;DHT22;42438;53.174;6.730;2023-04-01T04:04:36;9.30;99.90
56542;DHT22;42438;53.174;6.730;2023-04-01T04:07:06;9.40;99.90
56542;DHT22;42438;53.174;6.730;2023-04-01T04:09:37;9.40;99.90
56542;DHT22;42438;53.174;6.730;2023-04-01T04:12:08;9.60;99.90
56542;DHT22;42438;53.174;6.730;2023-04-01T04:14:38;9.60;99.90
56542;DHT22;42438;53.174;6.730;2023-04-01T04:17:12;9.40;99.90
56542;DHT22;42438;53.174;6.730;2023-04-01T04:19:46;9.60;99.90
56542;DHT22;42438;53.174;6.730;2023-04-01T04:22:16;9.50;99.90
56542;DHT22;42438;53.174;6.730;2023-04-01T04:24:47;9.40;99.90
56542;DHT22;42438;53.174;6.730;2023-04-01T04:27:18;9.40;99.90
56542;DHT22;42438;53.174;6.730;2023-04-01T04:29:48;9.70;99.90
56542;DHT22;42438;53.174;6.730;2023-04-01T04:32:19;9.60;99.90
56542;DHT22;42438;53.174;6.730;2023-04-01T04:34:50;9.40;99.90
56542;DHT22;42438;53.174;6.730;2023-04-01T04:37:20;9.60;99.90
56542;DHT22;42438;53.174;6.730;2023-04-01T04:39:51;9.40;99.90
56542;DHT22;42438;53.174;6.730;2023-04-01T04:42:22;9.50;99.90
56542;DHT22;42438;53.174;6.730;2023-04-01T04:44:52;9.40;99.90
56542;DHT22;42438;53.174;6.730;2023-04-01T04:47:23;9.40;99.90
56542;DHT22;42438;53.174;6.730;2023-04-01T04:49:53;9.60;99.90
56542;DHT22;42438;53.174;6.730;2023-04-01T04:52:24;9.70;99.90
56542;DHT22;42438;53.174;6.730;2023-04-01T04:54:55;9.50;99.90
56542;DHT22;42438;53.174;6.730;2023-04-01T04:57:25;9.50;99.90
56542;DHT22;42438;53.174;6.730;2023-04-01T04:59:56;9.40;99.90
56542;DHT22;42438;53.174;6.730;2023-04-01T05:02:27;9.40;99.90
56542;DHT22;42438;53.174;6.730;2023-04-01T05:04:57;9.40;99.90
56542;DHT22;42438;53.174;6.730;2023-04-01T05:07:28;9.60;99.90
56542;DHT22;42438;53.174;6.730;2023-04-01T05:09:58;9.50;99.90
56542;DHT22;42438;53.174;6.730;2023-04-01T05:12:29;9.50;99.90
56542;DHT22;42438;53.174;6.730;2023-04-01T05:15:00;9.70;99.90
56542;DHT22;42438;53.174;6.730;2023-04-01T05:17:30;9.60;99.90
56542;DHT22;42438;53.174;6.730;2023-04-01T05:20:01;9.80;99.90
56542;DHT22;42438;53.174;6.730;2023-04-01T05:22:31;9.40;99.90
56542;DHT22;42438;53.174;6.730;2023-04-01T05:25:02;9.70;99.90
56542;DHT22;42438;53.174;6.730;2023-04-01T05:27:33;9.40;99.90
56542;DHT22;42438;53.174;6.730;2023-04-01T05:30:04;9.70;99.90
56542;DHT22;42438;53.174;6.730;2023-04-01T05:32:34;9.50;99.90
56542;DHT22;42438;53.174;6.730;2023-04-01T05:35:05;9.50;99.90
56542;DHT22;42438;53.174;6.730;2023-04-01T05:37:36;9.60;99.90
56542;DHT22;42438;53.174;6.730;2023-04-01T05:40:07;9.50;99.90
56542;DHT22;42438;53.174;6.730;2023-04-01T05:42:38;9.50;99.90
56542;DHT22;42438;53.174;6.730;2023-04-01T05:45:09;9.50;99.90
56542;DHT22;42438;53.174;6.730;2023-04-01T05:47:39;9.60;99.90
56542;DHT22;42438;53.174;6.730;2023-04-01T05:50:10;9.60;99.90
56542;DHT22;42438;53.174;6.730;2023-04-01T05:52:41;9.50;99.90
56542;DHT22;42438;53.174;6.730;2023-04-01T05:55:12;9.50;99.90
56542;DHT22;42438;53.174;6.730;2023-04-01T05:57:44;9.60;99.90
56542;DHT22;42438;53.174;6.730;2023-04-01T06:00:15;9.70;99.90
56542;DHT22;42438;53.174;6.730;2023-04-01T06:02:46;9.50;99.90
56542;DHT22;42438;53.174;6.730;2023-04-01T06:05:17;9.60;99.90
56542;DHT22;42438;53.174;6.730;2023-04-01T06:07:48;9.70;99.90
56542;DHT22;42438;53.174;6.730;2023-04-01T06:10:21;9.60;99.90
56542;DHT22;42438;53.174;6.730;2023-04-01T06:15:56;9.60;99.90
56542;DHT22;42438;53.174;6.730;2023-04-01T06:18:39;9.70;99.90
56542;DHT22;42438;53.174;6.730;2023-04-01T06:26:52;9.70;99.90
56542;DHT22;42438;53.174;6.730;2023-04-01T06:29:32;9.80;99.90
56542;DHT22;42438;53.174;6.730;2023-04-01T06:47:58;9.80;99.90
56542;DHT22;42438;53.174;6.730;2023-04-01T06:50:54;10.00;99.90
56542;DHT22;42438;53.174;6.730;2023-04-01T06:53:33;10.00;99.90
56542;DHT22;42438;53.174;6.730;2023-04-01T06:56:06;10.00;99.90
56542;DHT22;42438;53.174;6.730;2023-04-01T06:58:49;9.80;99.90
56542;DHT22;42438;53.174;6.730;2023-04-01T07:01:22;9.90;99.90
56542;DHT22;42438;53.174;6.730;2023-04-01T07:03:57;9.70;99.90
56542;DHT22;42438;53.174;6.730;2023-04-01T07:06:35;9.90;99.90
56542;DHT22;42438;53.174;6.730;2023-04-01T07:09:09;10.00;99.90
56542;DHT22;42438;53.174;6.730;2023-04-01T07:11:41;9.90;99.90
56542;DHT22;42438;53.174;6.730;2023-04-01T07:14:17;9.70;99.90
56542;DHT22;42438;53.174;6.730;2023-04-01T07:17:25;10.00;99.90
56542;DHT22;42438;53.174;6.730;2023-04-01T07:19:47;9.90;99.90
56542;DHT22;42438;53.174;6.730;2023-04-01T07:22:26;9.90;99.90
56542;DHT22;42438;53.174;6.730;2023-04-01T07:25:02;10.00;99.90
56542;DHT22;42438;53.174;6.730;2023-04-01T07:27:35;10.00;99.90
56542;DHT22;42438;53.174;6.730;2023-04-01T07:30:16;9.80;99.90
56542;DHT22;42438;53.174;6.730;2023-04-01T07:32:58;10.10;99.90
56542;DHT22;42438;53.174;6.730;2023-04-01T07:35:31;10.00;99.90
56542;DHT22;42438;53.174;6.730;2023-04-01T07:40:58;10.00;99.90
56542;DHT22;42438;53.174;6.730;2023-04-01T07:46:14;10.10;99.90
56542;DHT22;42438;53.174;6.730;2023-04-01T07:51:31;10.10;99.90
56542;DHT22;42438;53.174;6.730;2023-04-01T07:54:07;10.10;99.90
56542;DHT22;42438;53.174;6.730;2023-04-01T08:04:28;10.30;99.90
56542;DHT22;42438;53.174;6.730;2023-04-01T08:09:38;10.30;99.90
56542;DHT22;42438;53.174;6.730;2023-04-01T08:15:14;10.70;99.90
56542;DHT22;42438;53.174;6.730;2023-04-01T08:17:56;10.70;99.90
56542;DHT22;42438;53.174;6.730;2023-04-01T08:20:34;10.50;99.90
56542;DHT22;42438;53.174;6.730;2023-04-01T08:23:09;10.50;99.90
56542;DHT22;42438;53.174;6.730;2023-04-01T08:26:26;10.50;99.90
56542;DHT22;42438;53.174;6.730;2023-04-01T08:28:40;10.50;99.90
56542;DHT22;42438;53.174;6.730;2023-04-01T08:33:42;10.70;99.90
56542;DHT22;42438;53.174;6.730;2023-04-01T08:44:58;11.10;99.90
56542;DHT22;42438;53.174;6.730;2023-04-01T08:47:42;11.30;99.90
56542;DHT22;42438;53.174;6.730;2023-04-01T08:50:02;11.30;99.90
56542;DHT22;42438;53.174;6.730;2023-04-01T08:52:37;11.40;99.90
56542;DHT22;42438;53.174;6.730;2023-04-01T09:04:06;11.50;99.90
56542;DHT22;42438;53.174;6.730;2023-04-01T09:06:48;11.50;99.90
56542;DHT22;42438;53.174;6.730;2023-04-01T09:17:34;11.30;99.90
56542;DHT22;42438;53.174;6.730;2023-04-01T09:20:24;11.40;99.90
56542;DHT22;42438;53.174;6.730;2023-04-01T09:25:53;11.30;99.90
56542;DHT22;42438;53.174;6.730;2023-04-01T09:28:54;11.20;99.90
56542;DHT22;42438;53.174;6.730;2023-04-01T09:31:37;10.80;99.90
56542;DHT22;42438;53.174;6.730;2023-04-01T09:36:45;10.60;99.90
56542;DHT22;42438;53.174;6.730;2023-04-01T09:39:31;10.50;99.90
56542;DHT22;42438;53.174;6.730;2023-04-01T09:42:15;10.50;99.90
56542;DHT22;42438;53.174;6.730;2023-04-01T09:44:58;10.50;99.90
56542;DHT22;42438;53.174;6.730;2023-04-01T09:50:17;10.20;99.90
56542;DHT22;42438;53.174;6.730;2023-04-01T09:52:59;10.30;99.90
56542;DHT22;42438;53.174;6.730;2023-04-01T10:03:54;10.60;99.90
56542;DHT22;42438;53.174;6.730;2023-04-01T10:11:43;10.10;99.90
56542;DHT22;42438;53.174;6.730;2023-04-01T10:17:00;10.20;99.90
56542;DHT22;42438;53.174;6.730;2023-04-01T10:38:24;10.70;99.90
56542;DHT22;42438;53.174;6.730;2023-04-01T11:02:56;10.20;99.90
56542;DHT22;42438;53.174;6.730;2023-04-01T11:19:03;10.10;99.90
56542;DHT22;42438;53.174;6.730;2023-04-01T11:51:26;10.80;99.90
56542;DHT22;42438;53.174;6.730;2023-04-01T11:56:43;10.80;99.90
56542;DHT22;42438;53.174;6.730;2023-04-01T12:01:59;10.70;99.90
56542;DHT22;42438;53.174;6.730;2023-04-01T12:04:54;10.70;99.90
56542;DHT22;42438;53.174;6.730;2023-04-01T12:13:01;10.60;99.90
56542;DHT22;42438;53.174;6.730;2023-04-01T12:26:43;10.80;99.90
56542;DHT22;42438;53.174;6.730;2023-04-01T12:34:58;10.50;99.90
56542;DHT22;42438;53.174;6.730;2023-04-01T12:37:44;10.40;99.90
56542;DHT22;42438;53.174;6.730;2023-04-01T12:42:52;10.40;99.90
56542;DHT22;42438;53.174;6.730;2023-04-01T12:56:04;10.00;99.90
56542;DHT22;42438;53.174;6.730;2023-04-01T13:11:57;9.90;99.90
56542;DHT22;42438;53.174;6.730;2023-04-01T13:20:02;9.90;99.90
56542;DHT22;42438;53.174;6.730;2023-04-01T13:27:51;9.80;99.90
56542;DHT22;42438;53.174;6.730;2023-04-01T13:30:30;9.80;99.90
56542;DHT22;42438;53.174;6.730;2023-04-01T13:35:39;9.80;99.90
56542;DHT22;42438;53.174;6.730;2023-04-01T13:40:49;9.90;99.90
56542;DHT22;42438;53.174;6.730;2023-04-01T13:43:57;9.70;99.90
56542;DHT22;42438;53.174;6.730;2023-04-01T14:11:29;9.70;99.90
56542;DHT22;42438;53.174;6.730;2023-04-01T14:19:11;9.90;99.90
56542;DHT22;42438;53.174;6.730;2023-04-01T14:27:16;9.50;99.90
56542;DHT22;42438;53.174;6.730;2023-04-01T14:45:59;9.10;99.90
56542;DHT22;42438;53.174;6.730;2023-04-01T14:48:32;9.10;99.90
56542;DHT22;42438;53.174;6.730;2023-04-01T14:51:19;9.20;99.90
56542;DHT22;42438;53.174;6.730;2023-04-01T14:56:35;9.00;99.90
56542;DHT22;42438;53.174;6.730;2023-04-01T14:59:10;9.00;99.90
56542;DHT22;42438;53.174;6.730;2023-04-01T15:09:49;8.80;99.90
56542;DHT22;42438;53.174;6.730;2023-04-01T15:12:30;8.80;99.90
56542;DHT22;42438;53.174;6.730;2023-04-01T15:15:24;8.70;99.90
56542;DHT22;42438;53.174;6.730;2023-04-01T15:20:32;8.60;99.90
56542;DHT22;42438;53.174;6.730;2023-04-01T15:28:24;8.50;99.90
56542;DHT22;42438;53.174;6.730;2023-04-01T15:41:43;8.40;99.90
56542;DHT22;42438;53.174;6.730;2023-04-01T15:49:37;8.20;99.90
56542;DHT22;42438;53.174;6.730;2023-04-01T15:52:15;8.80;99.90
56542;DHT22;42438;53.174;6.730;2023-04-01T16:10:36;7.80;99.90
56542;DHT22;42438;53.174;6.730;2023-04-01T16:21:14;7.70;99.90
56542;DHT22;42438;53.174;6.730;2023-04-01T16:23:55;7.70;99.90
56542;DHT22;42438;53.174;6.730;2023-04-01T16:34:36;8.00;99.90
56542;DHT22;42438;53.174;6.730;2023-04-01T16:37:10;7.40;99.90
56542;DHT22;42438;53.174;6.730;2023-04-01T16:39:45;7.40;99.90
56542;DHT22;42438;53.174;6.730;2023-04-01T16:47:45;7.70;99.90
56542;DHT22;42438;53.174;6.730;2023-04-01T16:52:58;7.50;99.90
56542;DHT22;42438;53.174;6.730;2023-04-01T16:58:03;7.30;99.90
56542;DHT22;42438;53.174;6.730;2023-04-01T17:00:38;7.90;99.90
56542;DHT22;42438;53.174;6.730;2023-04-01T17:03:18;7.20;99.90
56542;DHT22;42438;53.174;6.730;2023-04-01T17:11:16;7.30;99.90
56542;DHT22;42438;53.174;6.730;2023-04-01T17:13:56;7.20;99.90
56542;DHT22;42438;53.174;6.730;2023-04-01T17:16:35;7.30;99.90
56542;DHT22;42438;53.174;6.730;2023-04-01T17:19:14;7.30;99.90
56542;DHT22;42438;53.174;6.730;2023-04-01T17:27:40;7.10;99.90
56542;DHT22;42438;53.174;6.730;2023-04-01T17:32:54;7.00;99.90
56542;DHT22;42438;53.174;6.730;2023-04-01T17:35:31;7.40;99.90
56542;DHT22;42438;53.174;6.730;2023-04-01T17:45:53;6.90;99.90
56542;DHT22;42438;53.174;6.730;2023-04-01T17:53:56;6.40;99.90
56542;DHT22;42438;53.174;6.730;2023-04-01T17:59:26;6.80;99.90
56542;DHT22;42438;53.174;6.730;2023-04-01T18:02:04;6.90;99.90
56542;DHT22;42438;53.174;6.730;2023-04-01T18:04:41;6.80;99.90
56542;DHT22;42438;53.174;6.730;2023-04-01T18:10:01;6.90;99.90
56542;DHT22;42438;53.174;6.730;2023-04-01T18:26:33;6.60;99.90
56542;DHT22;42438;53.174;6.730;2023-04-01T18:29:11;6.90;99.90
56542;DHT22;42438;53.174;6.730;2023-04-01T18:31:44;6.80;99.90
56542;DHT22;42438;53.174;6.730;2023-04-01T18:36:50;6.70;99.90
56542;DHT22;42438;53.174;6.730;2023-04-01T18:39:22;6.40;99.90
56542;DHT22;42438;53.174;6.730;2023-04-01T18:44:49;6.50;99.90
56542;DHT22;42438;53.174;6.730;2023-04-01T18:47:36;6.60;99.90
56542;DHT22;42438;53.174;6.730;2023-04-01T18:53:38;6.50;99.90
56542;DHT22;42438;53.174;6.730;2023-04-01T19:04:01;6.20;99.90
56542;DHT22;42438;53.174;6.730;2023-04-01T19:06:35;6.30;99.90
56542;DHT22;42438;53.174;6.730;2023-04-01T19:09:16;6.60;99.90
56542;DHT22;42438;53.174;6.730;2023-04-01T19:12:32;6.20;99.90
56542;DHT22;42438;53.174;6.730;2023-04-01T19:14:51;6.30;99.90
56542;DHT22;42438;53.174;6.730;2023-04-01T19:17:44;6.20;99.90
56542;DHT22;42438;53.174;6.730;2023-04-01T19:25:57;5.90;99.90
56542;DHT22;42438;53.174;6.730;2023-04-01T19:39:31;5.90;99.90
56542;DHT22;42438;53.174;6.730;2023-04-01T19:50:38;5.60;99.90
56542;DHT22;42438;53.174;6.730;2023-04-01T19:53:32;5.70;99.90
56542;DHT22;42438;53.174;6.730;2023-04-01T20:01:20;5.80;99.90
56542;DHT22;42438;53.174;6.730;2023-04-01T20:04:03;5.80;99.90
56542;DHT22;42438;53.174;6.730;2023-04-01T20:06:42;5.90;99.90
56542;DHT22;42438;53.174;6.730;2023-04-01T20:09:35;5.70;99.90
56542;DHT22;42438;53.174;6.730;2023-04-01T20:12:17;5.80;99.90
56542;DHT22;42438;53.174;6.730;2023-04-01T20:14:53;5.50;99.90
56542;DHT22;42438;53.174;6.730;2023-04-01T20:17:32;5.90;99.90
56542;DHT22;42438;53.174;6.730;2023-04-01T20:27:47;5.80;99.90
56542;DHT22;42438;53.174;6.730;2023-04-01T20:36:18;5.50;99.90
56542;DHT22;42438;53.174;6.730;2023-04-01T20:49:41;5.40;99.90
56542;DHT22;42438;53.174;6.730;2023-04-01T20:57:28;5.30;99.90
56542;DHT22;42438;53.174;6.730;2023-04-01T21:03:10;5.30;99.90
56542;DHT22;42438;53.174;6.730;2023-04-01T21:05:51;5.60;99.90
56542;DHT22;42438;53.174;6.730;2023-04-01T21:16:44;5.30;99.90
56542;DHT22;42438;53.174;6.730;2023-04-01T21:33:14;5.50;99.90
56542;DHT22;42438;53.174;6.730;2023-04-01T21:56:14;5.10;99.90
56542;DHT22;42438;53.174;6.730;2023-04-01T22:04:31;5.00;99.90
56542;DHT22;42438;53.174;6.730;2023-04-01T22:07:18;5.00;99.90
56542;DHT22;42438;53.174;6.730;2023-04-01T22:12:41;4.80;99.90
56542;DHT22;42438;53.174;6.730;2023-04-01T22:18:00;4.80;99.90
56542;DHT22;42438;53.174;6.730;2023-04-01T22:20:55;4.70;99.90
56542;DHT22;42438;53.174;6.730;2023-04-01T22:23:31;4.70;99.90
56542;DHT22;42438;53.174;6.730;2023-04-01T22:26:16;4.80;99.90
56542;DHT22;42438;53.174;6.730;2023-04-01T22:49:04;4.70;99.90
56542;DHT22;42438;53.174;6.730;2023-04-01T22:51:43;4.70;99.90
56542;DHT22;42438;53.174;6.730;2023-04-01T22:56:53;4.60;99.90
56542;DHT22;42438;53.174;6.730;2023-04-01T23:02:27;4.50;99.90
56542;DHT22;42438;53.174;6.730;2023-04-01T23:04:59;4.70;99.90
56542;DHT22;42438;53.174;6.730;2023-04-01T23:10:05;4.30;99.90
56542;DHT22;42438;53.174;6.730;2023-04-01T23:12:42;4.20;99.90
56542;DHT22;42438;53.174;6.730;2023-04-01T23:15:13;4.30;99.90
56542;DHT22;42438;53.174;6.730;2023-04-01T23:26:04;4.20;99.90
56542;DHT22;42438;53.174;6.730;2023-04-01T23:28:49;4.30;99.90
56542;DHT22;42438;53.174;6.730;2023-04-01T23:34:15;4.50;99.90
56542;DHT22;42438;53.174;6.730;2023-04-01T23:36:46;4.20;99.90
56542;DHT22;42438;53.174;6.730;2023-04-01T23:39:36;4.70;99.90
56542;DHT22;42438;53.174;6.730;2023-04-01T23:42:12;4.10;99.90
56542;DHT22;42438;53.174;6.730;2023-04-01T23:44:45;4.50;99.90
56542;DHT22;42438;53.174;6.730;2023-04-01T23:47:20;4.90;99.90
56542;DHT22;42438;53.174;6.730;2023-04-01T23:49:52;4.00;99.90
56542;DHT22;42438;53.174;6.730;2023-04-01T23:52:30;4.30;99.90
56542;DHT22;42438;53.174;6.730;2023-04-01T23:55:21;3.90;99.90
